Aérodrome :
LOGIN :

S'inscrire | Disclaimer

   EN    FR    IT 

 










Légende :    VFR   VFR Marginal   IFR   IFR Intensif   IFR Très Intensif
Visi : 
Plafond : 
>= 8 km
>= 3000ft
5 à 8 km
1000 à 3000 ft
1500m à 5 km
500 à 1000 ft
800 à 1500m
200 à 500 ft
< 800m
< 200 ft
Symboles :   Orages  Brouillard  Fortes neiges  Fortes précipitations  Vent > 20 kt
SIGMETs :   Divers  Orages  Givrage  Turbulence  Onde Orograph.  Cendres Volcan.






- Altitude de l'aérodrome : 741 ft
- Code IATA : PED


LKPD - Pardubice AB

DERNIER METAR :
  • 171539Z 25006KT 9999 -RA NSC 10/04 Q1017 RMK BLACK

METARs EXPIRÉS :
  • 171530Z 25007KT CAVOK 11/04 Q1017 RMK BLACK
  • 171500Z 25003KT CAVOK 11/05 Q1017 RMK BLACK
  • 171430Z 26003KT 9999 SCT040 OVC060 12/04 Q1017 RMK BLACK
  • 171400Z 26002KT 9999 SCT040 OVC060 12/04 Q1016 RMK BLACK
  • 171330Z 23005KT 9999 FEW040 BKN070 12/04 Q1016 RMK BLACK
  • 171300Z 22006KT CAVOK 12/04 Q1016 RMK BLACK

TAF TAF LKPD
Valide du 16 à 18h jusqu'au 17 à 18h UTC


161700Z 1618/1718 17016G26KT CAVOK
BECMG 1706/1708 27008KT BKN023
TEMPO 1712/1718 7000 RA BKN014



MET'MAP, la Météo Aéronautique d'un coup d'oeil ! - Copyright ORBIFLY Décembre 2007 - Disclaimer

ORBIFLY MET'MAP TEAM :

Programmation & Développement : Alexandra Zaïnal
Sur une idée originale de : Baudouin d'Aumeries
Assistance à la programmation : Marc-Olivier Méhu
Soutien technique & logistique : Manuel Goepfert

Contact : metmap@orbifly.com




SOURCES & CREDITS :

   NOAA